sensor_id;sensor_type;location;lat;lon;timestamp;pressure;altitude;pressure_sealevel;temperature;humidity
49178;BME280;35016;55.674;37.468;2023-04-26T00:01:59;97800.38;;;11.88;64.42
49178;BME280;35016;55.674;37.468;2023-04-26T00:04:27;97808.63;;;11.83;64.60
49178;BME280;35016;55.674;37.468;2023-04-26T00:06:55;97795.44;;;11.76;65.51
49178;BME280;35016;55.674;37.468;2023-04-26T00:09:22;97792.06;;;11.71;65.66
49178;BME280;35016;55.674;37.468;2023-04-26T00:11:49;97791.06;;;11.67;65.70
49178;BME280;35016;55.674;37.468;2023-04-26T00:14:16;97797.63;;;11.66;65.73
49178;BME280;35016;55.674;37.468;2023-04-26T00:16:43;97785.47;;;11.63;65.76
49178;BME280;35016;55.674;37.468;2023-04-26T00:19:11;97786.09;;;11.60;66.39
49178;BME280;35016;55.674;37.468;2023-04-26T00:21:38;97791.03;;;11.58;66.42
49178;BME280;35016;55.674;37.468;2023-04-26T00:24:06;97788.31;;;11.58;67.20
49178;BME280;35016;55.674;37.468;2023-04-26T00:26:33;97788.09;;;11.55;66.80
49178;BME280;35016;55.674;37.468;2023-04-26T00:29:01;97783.47;;;11.55;67.18
49178;BME280;35016;55.674;37.468;2023-04-26T00:31:29;97786.78;;;11.52;67.50
49178;BME280;35016;55.674;37.468;2023-04-26T00:33:56;97781.69;;;11.51;67.82
49178;BME280;35016;55.674;37.468;2023-04-26T00:36:23;97778.47;;;11.48;68.13
49178;BME280;35016;55.674;37.468;2023-04-26T00:38:51;97785.44;;;11.41;67.71
49178;BME280;35016;55.674;37.468;2023-04-26T00:41:19;97780.44;;;11.34;68.55
49178;BME280;35016;55.674;37.468;2023-04-26T00:43:46;97770.81;;;11.28;68.34
49178;BME280;35016;55.674;37.468;2023-04-26T00:46:13;97777.75;;;11.21;68.75
49178;BME280;35016;55.674;37.468;2023-04-26T00:48:41;97755.38;;;11.15;68.63
49178;BME280;35016;55.674;37.468;2023-04-26T00:51:08;97766.03;;;11.11;69.15
49178;BME280;35016;55.674;37.468;2023-04-26T00:53:35;97757.00;;;11.02;69.39
49178;BME280;35016;55.674;37.468;2023-04-26T00:56:05;97760.13;;;10.96;69.83
49178;BME280;35016;55.674;37.468;2023-04-26T00:58:33;97757.81;;;10.89;69.91
49178;BME280;35016;55.674;37.468;2023-04-26T01:01:00;97741.97;;;10.82;70.00
49178;BME280;35016;55.674;37.468;2023-04-26T01:03:28;97751.03;;;10.78;70.31
49178;BME280;35016;55.674;37.468;2023-04-26T01:05:56;97749.22;;;10.73;70.57
49178;BME280;35016;55.674;37.468;2023-04-26T01:08:23;97741.72;;;10.70;70.62
49178;BME280;35016;55.674;37.468;2023-04-26T01:10:51;97743.88;;;10.68;71.11
49178;BME280;35016;55.674;37.468;2023-04-26T01:13:19;97735.25;;;10.66;71.13
49178;BME280;35016;55.674;37.468;2023-04-26T01:15:47;97739.06;;;10.65;71.26
49178;BME280;35016;55.674;37.468;2023-04-26T01:18:14;97736.06;;;10.67;71.50
49178;BME280;35016;55.674;37.468;2023-04-26T01:20:41;97717.88;;;10.67;71.41
49178;BME280;35016;55.674;37.468;2023-04-26T01:23:09;97730.88;;;10.70;72.07
49178;BME280;35016;55.674;37.468;2023-04-26T01:25:37;97725.13;;;10.72;71.87
49178;BME280;35016;55.674;37.468;2023-04-26T01:28:05;97732.47;;;10.71;72.15
49178;BME280;35016;55.674;37.468;2023-04-26T01:30:32;97716.50;;;10.70;72.39
49178;BME280;35016;55.674;37.468;2023-04-26T01:33:01;97722.19;;;10.68;72.35
49178;BME280;35016;55.674;37.468;2023-04-26T01:35:28;97713.78;;;10.70;72.49
49178;BME280;35016;55.674;37.468;2023-04-26T01:37:55;97707.03;;;10.67;72.57
49178;BME280;35016;55.674;37.468;2023-04-26T01:40:22;97704.56;;;10.71;72.89
49178;BME280;35016;55.674;37.468;2023-04-26T01:42:49;97702.34;;;10.73;72.61
49178;BME280;35016;55.674;37.468;2023-04-26T01:45:16;97703.63;;;10.75;72.66
49178;BME280;35016;55.674;37.468;2023-04-26T01:48:02;97701.91;;;10.79;72.17
49178;BME280;35016;55.674;37.468;2023-04-26T01:50:31;97693.47;;;10.81;72.51
49178;BME280;35016;55.674;37.468;2023-04-26T01:52:58;97700.19;;;10.83;72.97
49178;BME280;35016;55.674;37.468;2023-04-26T01:55:25;97688.84;;;10.81;72.77
49178;BME280;35016;55.674;37.468;2023-04-26T01:57:52;97688.06;;;10.81;72.67
49178;BME280;35016;55.674;37.468;2023-04-26T02:00:19;97688.84;;;10.81;72.85
49178;BME280;35016;55.674;37.468;2023-04-26T02:02:48;97684.53;;;10.80;73.27
49178;BME280;35016;55.674;37.468;2023-04-26T02:05:15;97681.03;;;10.80;73.19
49178;BME280;35016;55.674;37.468;2023-04-26T02:07:42;97677.72;;;10.83;72.98
49178;BME280;35016;55.674;37.468;2023-04-26T02:10:09;97678.50;;;10.83;73.53
49178;BME280;35016;55.674;37.468;2023-04-26T02:12:36;97673.88;;;10.84;73.71
49178;BME280;35016;55.674;37.468;2023-04-26T02:15:04;97670.69;;;10.82;73.64
49178;BME280;35016;55.674;37.468;2023-04-26T02:17:34;97669.56;;;10.83;73.80
49178;BME280;35016;55.674;37.468;2023-04-26T02:20:03;97678.50;;;10.83;73.83
49178;BME280;35016;55.674;37.468;2023-04-26T02:22:30;97668.16;;;10.85;73.49
49178;BME280;35016;55.674;37.468;2023-04-26T02:24:57;97663.53;;;10.86;73.67
49178;BME280;35016;55.674;37.468;2023-04-26T02:27:26;97654.59;;;10.85;73.60
49178;BME280;35016;55.674;37.468;2023-04-26T02:29:53;97666.25;;;10.86;73.29
49178;BME280;35016;55.674;37.468;2023-04-26T02:32:21;97658.41;;;10.84;73.42
49178;BME280;35016;55.674;37.468;2023-04-26T02:34:49;97654.41;;;10.82;73.65
49178;BME280;35016;55.674;37.468;2023-04-26T02:37:16;97649.28;;;10.80;74.02
49178;BME280;35016;55.674;37.468;2023-04-26T02:39:43;97665.06;;;10.78;73.66
49178;BME280;35016;55.674;37.468;2023-04-26T02:42:11;97653.53;;;10.73;73.75
49178;BME280;35016;55.674;37.468;2023-04-26T02:44:39;97650.63;;;10.69;74.19
49178;BME280;35016;55.674;37.468;2023-04-26T02:47:07;97652.63;;;10.64;74.46
49178;BME280;35016;55.674;37.468;2023-04-26T02:49:34;97646.72;;;10.62;74.83
49178;BME280;35016;55.674;37.468;2023-04-26T02:52:01;97645.72;;;10.58;74.68
49178;BME280;35016;55.674;37.468;2023-04-26T02:54:29;97642.53;;;10.55;74.72
49178;BME280;35016;55.674;37.468;2023-04-26T02:56:56;97647.44;;;10.53;75.45
49178;BME280;35016;55.674;37.468;2023-04-26T02:59:26;97639.81;;;10.55;74.93
49178;BME280;35016;55.674;37.468;2023-04-26T03:01:54;97632.78;;;10.54;75.02
49178;BME280;35016;55.674;37.468;2023-04-26T03:04:22;97631.69;;;10.55;75.07
49178;BME280;35016;55.674;37.468;2023-04-26T03:06:49;97632.78;;;10.54;75.35
49178;BME280;35016;55.674;37.468;2023-04-26T03:09:16;97635.50;;;10.54;75.78
49178;BME280;35016;55.674;37.468;2023-04-26T03:11:43;97634.09;;;10.57;75.35
49178;BME280;35016;55.674;37.468;2023-04-26T03:14:11;97633.47;;;10.60;75.37
49178;BME280;35016;55.674;37.468;2023-04-26T03:16:43;97622.63;;;10.60;75.80
49178;BME280;35016;55.674;37.468;2023-04-26T03:19:10;97623.44;;;10.61;75.86
49178;BME280;35016;55.674;37.468;2023-04-26T03:21:39;97625.84;;;10.62;75.70
49178;BME280;35016;55.674;37.468;2023-04-26T03:24:06;97623.63;;;10.64;75.76
49178;BME280;35016;55.674;37.468;2023-04-26T03:26:33;97619.31;;;10.63;75.85
49178;BME280;35016;55.674;37.468;2023-04-26T03:29:01;97622.22;;;10.67;75.54
49178;BME280;35016;55.674;37.468;2023-04-26T03:31:28;97616.00;;;10.66;76.00
49178;BME280;35016;55.674;37.468;2023-04-26T03:33:55;97626.84;;;10.66;75.36
49178;BME280;35016;55.674;37.468;2023-04-26T03:36:23;97625.03;;;10.62;75.61
49178;BME280;35016;55.674;37.468;2023-04-26T03:38:50;97622.44;;;10.57;75.44
49178;BME280;35016;55.674;37.468;2023-04-26T03:41:19;97611.41;;;10.53;76.09
49178;BME280;35016;55.674;37.468;2023-04-26T03:43:46;97611.72;;;10.51;75.78
49178;BME280;35016;55.674;37.468;2023-04-26T03:46:13;97607.41;;;10.50;76.08
49178;BME280;35016;55.674;37.468;2023-04-26T03:48:40;97600.22;;;10.46;76.58
49178;BME280;35016;55.674;37.468;2023-04-26T03:51:07;97605.13;;;10.44;76.47
49178;BME280;35016;55.674;37.468;2023-04-26T03:53:34;97603.84;;;10.41;76.65
49178;BME280;35016;55.674;37.468;2023-04-26T03:56:01;97597.88;;;10.39;77.13
49178;BME280;35016;55.674;37.468;2023-04-26T03:58:29;97605.53;;;10.37;76.50
49178;BME280;35016;55.674;37.468;2023-04-26T04:00:56;97595.00;;;10.36;76.83
49178;BME280;35016;55.674;37.468;2023-04-26T04:03:26;97599.81;;;10.39;76.81
49178;BME280;35016;55.674;37.468;2023-04-26T04:05:56;97598.69;;;10.40;77.29
49178;BME280;35016;55.674;37.468;2023-04-26T04:08:23;97594.06;;;10.40;76.97
49178;BME280;35016;55.674;37.468;2023-04-26T04:10:50;97593.50;;;10.43;77.09
49178;BME280;35016;55.674;37.468;2023-04-26T04:13:18;97598.91;;;10.43;77.26
49178;BME280;35016;55.674;37.468;2023-04-26T04:15:45;97588.88;;;10.44;77.24
49178;BME280;35016;55.674;37.468;2023-04-26T04:18:13;97591.59;;;10.44;77.09
49178;BME280;35016;55.674;37.468;2023-04-26T04:20:40;97584.75;;;10.46;77.77
49178;BME280;35016;55.674;37.468;2023-04-26T04:23:08;97593.19;;;10.45;77.48
49178;BME280;35016;55.674;37.468;2023-04-26T04:25:37;97588.38;;;10.42;77.84
49178;BME280;35016;55.674;37.468;2023-04-26T04:28:08;97596.28;;;10.38;77.79
49178;BME280;35016;55.674;37.468;2023-04-26T04:30:35;97593.50;;;10.43;77.36
49178;BME280;35016;55.674;37.468;2023-04-26T04:33:02;97593.97;;;10.45;77.95
49178;BME280;35016;55.674;37.468;2023-04-26T04:35:32;97586.16;;;10.44;77.66
49178;BME280;35016;55.674;37.468;2023-04-26T04:38:02;97589.06;;;10.47;77.78
49178;BME280;35016;55.674;37.468;2023-04-26T04:40:31;97589.88;;;10.48;77.81
49178;BME280;35016;55.674;37.468;2023-04-26T04:42:59;97585.53;;;10.47;78.38
49178;BME280;35016;55.674;37.468;2023-04-26T04:45:28;97591.47;;;10.49;78.13
49178;BME280;35016;55.674;37.468;2023-04-26T04:47:56;97581.91;;;10.51;78.04
49178;BME280;35016;55.674;37.468;2023-04-26T04:50:25;97590.22;;;10.55;78.40
49178;BME280;35016;55.674;37.468;2023-04-26T04:52:52;97587.72;;;10.59;78.16
49178;BME280;35016;55.674;37.468;2023-04-26T04:55:19;97592.03;;;10.60;78.32
49178;BME280;35016;55.674;37.468;2023-04-26T04:57:46;97590.91;;;10.61;78.28
49178;BME280;35016;55.674;37.468;2023-04-26T05:00:14;97588.03;;;10.57;78.41
49178;BME280;35016;55.674;37.468;2023-04-26T05:03:04;97580.56;;;10.63;77.92
49178;BME280;35016;55.674;37.468;2023-04-26T05:05:31;97577.84;;;10.63;78.56
49178;BME280;35016;55.674;37.468;2023-04-26T05:07:58;97582.97;;;10.64;78.81
49178;BME280;35016;55.674;37.468;2023-04-26T05:10:25;97581.56;;;10.67;78.11
49178;BME280;35016;55.674;37.468;2023-04-26T05:12:52;97591.50;;;10.71;78.13
49178;BME280;35016;55.674;37.468;2023-04-26T05:15:20;97590.97;;;10.69;78.18
49178;BME280;35016;55.674;37.468;2023-04-26T05:17:47;97581.75;;;10.70;78.84
49178;BME280;35016;55.674;37.468;2023-04-26T05:20:17;97582.03;;;10.69;78.45
49178;BME280;35016;55.674;37.468;2023-04-26T05:22:45;97582.25;;;10.72;78.74
49178;BME280;35016;55.674;37.468;2023-04-26T05:25:12;97576.22;;;10.75;78.88
49178;BME280;35016;55.674;37.468;2023-04-26T05:27:40;97564.38;;;10.71;78.52
49178;BME280;35016;55.674;37.468;2023-04-26T05:30:26;97585.47;;;10.74;78.32
49178;BME280;35016;55.674;37.468;2023-04-26T05:33:03;97580.03;;;10.74;78.48
49178;BME280;35016;55.674;37.468;2023-04-26T05:35:53;97581.47;;;10.72;78.48
49178;BME280;35016;55.674;37.468;2023-04-26T05:38:20;97573.81;;;10.74;78.91
49178;BME280;35016;55.674;37.468;2023-04-26T05:40:51;97576.03;;;10.72;78.94
49178;BME280;35016;55.674;37.468;2023-04-26T05:43:18;97580.03;;;10.74;78.84
49178;BME280;35016;55.674;37.468;2023-04-26T05:45:52;97581.34;;;10.77;79.49
49178;BME280;35016;55.674;37.468;2023-04-26T05:48:19;97587.44;;;10.82;80.03
49178;BME280;35016;55.674;37.468;2023-04-26T05:50:48;97586.13;;;10.80;78.33
49178;BME280;35016;55.674;37.468;2023-04-26T05:53:16;97582.00;;;10.82;78.69
49178;BME280;35016;55.674;37.468;2023-04-26T05:55:45;97585.50;;;10.83;78.93
49178;BME280;35016;55.674;37.468;2023-04-26T05:58:13;97585.22;;;10.84;78.58
49178;BME280;35016;55.674;37.468;2023-04-26T06:00:40;97594.94;;;10.85;78.59
49178;BME280;35016;55.674;37.468;2023-04-26T06:03:08;97576.94;;;10.90;78.78
49178;BME280;35016;55.674;37.468;2023-04-26T06:05:36;97588.47;;;10.95;78.90
49178;BME280;35016;55.674;37.468;2023-04-26T06:08:07;97601.94;;;11.00;79.38
49178;BME280;35016;55.674;37.468;2023-04-26T06:10:35;97595.25;;;11.06;78.89
49178;BME280;35016;55.674;37.468;2023-04-26T06:13:03;97584.59;;;11.10;78.89
49178;BME280;35016;55.674;37.468;2023-04-26T06:15:35;97582.50;;;11.07;78.38
49178;BME280;35016;55.674;37.468;2023-04-26T06:18:03;97589.69;;;11.11;78.73
49178;BME280;35016;55.674;37.468;2023-04-26T06:20:31;97599.13;;;11.14;78.57
49178;BME280;35016;55.674;37.468;2023-04-26T06:22:58;97591.00;;;11.14;78.69
49178;BME280;35016;55.674;37.468;2023-04-26T06:25:25;97598.19;;;11.18;78.44
49178;BME280;35016;55.674;37.468;2023-04-26T06:27:52;97613.06;;;11.21;78.12
49178;BME280;35016;55.674;37.468;2023-04-26T06:30:19;97601.41;;;11.21;78.32
49178;BME280;35016;55.674;37.468;2023-04-26T06:32:47;97597.56;;;11.22;78.51
49178;BME280;35016;55.674;37.468;2023-04-26T06:35:14;97605.41;;;11.23;78.19
49178;BME280;35016;55.674;37.468;2023-04-26T06:37:42;97600.94;;;11.27;78.62
49178;BME280;35016;55.674;37.468;2023-04-26T06:40:11;97594.72;;;11.27;78.51
49178;BME280;35016;55.674;37.468;2023-04-26T06:42:42;97603.56;;;11.32;78.03
49178;BME280;35016;55.674;37.468;2023-04-26T06:45:23;97609.97;;;11.36;77.96
49178;BME280;35016;55.674;37.468;2023-04-26T06:47:51;97603.91;;;11.39;78.08
49178;BME280;35016;55.674;37.468;2023-04-26T06:50:23;97614.94;;;11.43;78.19
49178;BME280;35016;55.674;37.468;2023-04-26T06:52:53;97610.63;;;11.42;78.11
49178;BME280;35016;55.674;37.468;2023-04-26T06:55:22;97610.94;;;11.40;78.03
49178;BME280;35016;55.674;37.468;2023-04-26T06:57:53;97619.88;;;11.41;78.02
49178;BME280;35016;55.674;37.468;2023-04-26T07:00:21;97609.66;;;11.38;77.95
49178;BME280;35016;55.674;37.468;2023-04-26T07:02:48;97616.38;;;11.40;78.15
49178;BME280;35016;55.674;37.468;2023-04-26T07:05:15;97619.56;;;11.42;78.01
49178;BME280;35016;55.674;37.468;2023-04-26T07:07:49;97617.66;;;11.43;78.00
49178;BME280;35016;55.674;37.468;2023-04-26T07:10:28;97614.47;;;11.41;78.02
49178;BME280;35016;55.674;37.468;2023-04-26T07:12:55;97615.13;;;11.46;78.22
49178;BME280;35016;55.674;37.468;2023-04-26T07:15:23;97615.44;;;11.45;77.58
49178;BME280;35016;55.674;37.468;2023-04-26T07:17:50;97618.47;;;11.43;77.66
49178;BME280;35016;55.674;37.468;2023-04-26T07:20:17;97614.81;;;11.48;77.81
49178;BME280;35016;55.674;37.468;2023-04-26T07:22:46;97611.16;;;11.53;77.88
49178;BME280;35016;55.674;37.468;2023-04-26T07:25:16;97617.88;;;11.55;77.58
49178;BME280;35016;55.674;37.468;2023-04-26T07:27:46;97635.16;;;11.59;77.73
49178;BME280;35016;55.674;37.468;2023-04-26T07:30:13;97633.88;;;11.57;77.57
49178;BME280;35016;55.674;37.468;2023-04-26T07:32:40;97625.59;;;11.62;77.46
49178;BME280;35016;55.674;37.468;2023-04-26T07:35:08;97647.19;;;11.67;77.58
49178;BME280;35016;55.674;37.468;2023-04-26T07:37:42;97634.56;;;11.71;77.57
49178;BME280;35016;55.674;37.468;2023-04-26T07:40:10;97633.94;;;11.74;77.26
49178;BME280;35016;55.674;37.468;2023-04-26T07:42:39;97628.19;;;11.75;77.44
49178;BME280;35016;55.674;37.468;2023-04-26T07:45:06;97640.25;;;11.83;77.66
49178;BME280;35016;55.674;37.468;2023-04-26T07:47:34;97640.13;;;11.88;77.37
49178;BME280;35016;55.674;37.468;2023-04-26T07:50:01;97640.28;;;11.92;76.86
49178;BME280;35016;55.674;37.468;2023-04-26T07:52:28;97638.56;;;11.96;77.16
49178;BME280;35016;55.674;37.468;2023-04-26T07:54:57;97644.47;;;11.98;77.44
49178;BME280;35016;55.674;37.468;2023-04-26T07:57:24;97645.59;;;11.97;77.39
49178;BME280;35016;55.674;37.468;2023-04-26T07:59:55;97647.34;;;12.01;76.75
49178;BME280;35016;55.674;37.468;2023-04-26T08:02:22;97644.94;;;12.00;76.61
49178;BME280;35016;55.674;37.468;2023-04-26T08:05:09;97652.47;;;12.03;77.21
49178;BME280;35016;55.674;37.468;2023-04-26T08:07:37;97651.84;;;12.06;76.61
49178;BME280;35016;55.674;37.468;2023-04-26T08:10:05;97655.22;;;12.12;76.81
49178;BME280;35016;55.674;37.468;2023-04-26T08:12:33;97654.91;;;12.13;77.01
49178;BME280;35016;55.674;37.468;2023-04-26T08:15:04;97654.28;;;12.16;76.66
49178;BME280;35016;55.674;37.468;2023-04-26T08:17:32;97654.78;;;12.18;76.87
49178;BME280;35016;55.674;37.468;2023-04-26T08:19:59;97658.63;;;12.26;76.67
49178;BME280;35016;55.674;37.468;2023-04-26T08:22:26;97664.41;;;12.33;76.25
49178;BME280;35016;55.674;37.468;2023-04-26T08:24:54;97685.66;;;12.31;76.50
49178;BME280;35016;55.674;37.468;2023-04-26T08:27:21;97672.06;;;12.31;76.15
49178;BME280;35016;55.674;37.468;2023-04-26T08:29:51;97677.66;;;12.34;76.22
49178;BME280;35016;55.674;37.468;2023-04-26T08:32:18;97667.44;;;12.40;76.52
49178;BME280;35016;55.674;37.468;2023-04-26T08:34:47;97666.22;;;12.46;76.20
49178;BME280;35016;55.674;37.468;2023-04-26T08:37:14;97663.97;;;12.48;76.26
49178;BME280;35016;55.674;37.468;2023-04-26T08:39:41;97669.25;;;12.53;75.85
49178;BME280;35016;55.674;37.468;2023-04-26T08:42:13;97682.22;;;12.56;76.03
49178;BME280;35016;55.674;37.468;2023-04-26T08:44:42;97672.94;;;12.49;75.78
49178;BME280;35016;55.674;37.468;2023-04-26T08:47:15;97683.13;;;12.43;75.64
49178;BME280;35016;55.674;37.468;2023-04-26T08:49:52;97688.72;;;12.38;76.24
49178;BME280;35016;55.674;37.468;2023-04-26T08:52:29;97679.09;;;12.32;75.77
49178;BME280;35016;55.674;37.468;2023-04-26T08:54:57;97677.34;;;12.27;75.94
49178;BME280;35016;55.674;37.468;2023-04-26T08:57:25;97677.19;;;12.32;76.31
49178;BME280;35016;55.674;37.468;2023-04-26T08:59:54;97677.34;;;12.36;76.00
49178;BME280;35016;55.674;37.468;2023-04-26T09:02:23;97681.53;;;12.42;76.10
49178;BME280;35016;55.674;37.468;2023-04-26T09:04:51;97691.28;;;12.43;76.17
49178;BME280;35016;55.674;37.468;2023-04-26T09:07:34;97684.88;;;12.39;76.30
49178;BME280;35016;55.674;37.468;2023-04-26T09:10:03;97695.72;;;12.30;75.56
49178;BME280;35016;55.674;37.468;2023-04-26T09:12:35;97695.22;;;12.20;75.82
49178;BME280;35016;55.674;37.468;2023-04-26T09:15:06;97700.75;;;12.06;76.12
49178;BME280;35016;55.674;37.468;2023-04-26T09:17:38;97703.09;;;11.90;75.72
49178;BME280;35016;55.674;37.468;2023-04-26T09:20:27;97695.59;;;11.73;77.37
49178;BME280;35016;55.674;37.468;2023-04-26T09:23:08;97722.53;;;11.61;77.30
49178;BME280;35016;55.674;37.468;2023-04-26T09:25:36;97714.78;;;11.55;77.13
49178;BME280;35016;55.674;37.468;2023-04-26T09:28:19;97701.66;;;11.48;77.54
49178;BME280;35016;55.674;37.468;2023-04-26T09:30:47;97726.72;;;11.45;77.69
49178;BME280;35016;55.674;37.468;2023-04-26T09:33:14;97711.22;;;11.45;77.69
49178;BME280;35016;55.674;37.468;2023-04-26T09:35:42;97714.25;;;11.44;77.80
49178;BME280;35016;55.674;37.468;2023-04-26T09:38:14;97731.84;;;11.46;77.98
49178;BME280;35016;55.674;37.468;2023-04-26T09:40:46;97718.75;;;11.48;78.13
49178;BME280;35016;55.674;37.468;2023-04-26T09:43:15;97717.03;;;11.53;78.65
49178;BME280;35016;55.674;37.468;2023-04-26T09:45:51;97723.75;;;11.55;78.36
49178;BME280;35016;55.674;37.468;2023-04-26T09:48:23;97722.84;;;11.60;78.31
49178;BME280;35016;55.674;37.468;2023-04-26T09:50:56;97723.06;;;11.72;78.67
49178;BME280;35016;55.674;37.468;2023-04-26T09:53:31;97717.59;;;11.86;78.39
49178;BME280;35016;55.674;37.468;2023-04-26T09:56:11;97719.25;;;11.95;78.60
49178;BME280;35016;55.674;37.468;2023-04-26T09:58:55;97745.50;;;12.08;78.64
49178;BME280;35016;55.674;37.468;2023-04-26T10:01:27;97725.53;;;12.13;77.83
49178;BME280;35016;55.674;37.468;2023-04-26T10:03:56;97735.50;;;12.18;78.09
49178;BME280;35016;55.674;37.468;2023-04-26T10:06:24;97720.00;;;12.18;77.50
49178;BME280;35016;55.674;37.468;2023-04-26T10:08:53;97731.03;;;12.22;77.59
49178;BME280;35016;55.674;37.468;2023-04-26T10:11:22;97729.59;;;12.24;77.23
49178;BME280;35016;55.674;37.468;2023-04-26T10:13:50;97744.16;;;12.28;77.20
49178;BME280;35016;55.674;37.468;2023-04-26T10:16:17;97731.56;;;12.32;77.45
49178;BME280;35016;55.674;37.468;2023-04-26T10:18:46;97748.88;;;12.45;77.08
49178;BME280;35016;55.674;37.468;2023-04-26T10:21:33;97742.22;;;12.68;77.65
49178;BME280;35016;55.674;37.468;2023-04-26T10:24:03;97741.94;;;12.87;77.14
49178;BME280;35016;55.674;37.468;2023-04-26T10:26:49;97734.47;;;13.10;77.18
49178;BME280;35016;55.674;37.468;2023-04-26T10:29:19;97730.97;;;13.27;76.92
49178;BME280;35016;55.674;37.468;2023-04-26T10:34:35;97735.44;;;13.66;76.26
49178;BME280;35016;55.674;37.468;2023-04-26T10:37:15;97744.53;;;13.79;75.13
49178;BME280;35016;55.674;37.468;2023-04-26T10:39:45;97739.06;;;13.87;75.35
49178;BME280;35016;55.674;37.468;2023-04-26T10:42:25;97740.69;;;13.97;73.94
49178;BME280;35016;55.674;37.468;2023-04-26T10:45:26;97741.81;;;13.96;73.67
49178;BME280;35016;55.674;37.468;2023-04-26T10:51:08;97738.94;;;13.75;73.77
49178;BME280;35016;55.674;37.468;2023-04-26T10:59:12;97751.50;;;13.33;74.09
49178;BME280;35016;55.674;37.468;2023-04-26T11:01:59;97757.56;;;13.21;74.24
49178;BME280;35016;55.674;37.468;2023-04-26T11:04:50;97755.59;;;13.13;74.26
49178;BME280;35016;55.674;37.468;2023-04-26T11:07:35;97789.41;;;13.21;74.19
49178;BME280;35016;55.674;37.468;2023-04-26T11:10:07;97776.25;;;13.14;74.32
49178;BME280;35016;55.674;37.468;2023-04-26T11:12:40;97778.16;;;13.14;74.17
49178;BME280;35016;55.674;37.468;2023-04-26T11:15:08;97776.25;;;13.14;73.77
49178;BME280;35016;55.674;37.468;2023-04-26T11:17:39;97778.03;;;13.19;73.48
49178;BME280;35016;55.674;37.468;2023-04-26T11:20:15;97788.44;;;13.25;73.13
49178;BME280;35016;55.674;37.468;2023-04-26T11:22:42;97779.81;;;13.41;72.88
49178;BME280;35016;55.674;37.468;2023-04-26T11:25:11;97787.38;;;13.61;72.86
49178;BME280;35016;55.674;37.468;2023-04-26T11:27:42;97778.06;;;13.88;72.56
49178;BME280;35016;55.674;37.468;2023-04-26T11:30:10;97775.91;;;14.11;72.40
49178;BME280;35016;55.674;37.468;2023-04-26T11:32:37;97777.16;;;14.22;72.06
49178;BME280;35016;55.674;37.468;2023-04-26T11:35:04;97776.19;;;14.26;71.42
49178;BME280;35016;55.674;37.468;2023-04-26T11:37:33;97789.50;;;14.28;71.49
49178;BME280;35016;55.674;37.468;2023-04-26T11:40:00;97784.84;;;14.29;70.88
49178;BME280;35016;55.674;37.468;2023-04-26T11:42:28;97782.88;;;14.38;70.67
49178;BME280;35016;55.674;37.468;2023-04-26T11:44:56;97783.00;;;14.59;70.52
49178;BME280;35016;55.674;37.468;2023-04-26T11:47:25;97791.47;;;14.95;70.14
49178;BME280;35016;55.674;37.468;2023-04-26T11:49:56;97791.53;;;15.16;69.28
49178;BME280;35016;55.674;37.468;2023-04-26T11:52:24;97805.50;;;15.14;68.61
49178;BME280;35016;55.674;37.468;2023-04-26T11:55:03;97794.66;;;15.06;67.72
49178;BME280;35016;55.674;37.468;2023-04-26T11:57:33;97799.00;;;14.98;68.58
49178;BME280;35016;55.674;37.468;2023-04-26T12:00:13;97796.38;;;15.10;67.82
49178;BME280;35016;55.674;37.468;2023-04-26T12:02:44;97803.78;;;15.31;67.75
49178;BME280;35016;55.674;37.468;2023-04-26T12:05:26;97808.47;;;15.51;65.60
49178;BME280;35016;55.674;37.468;2023-04-26T12:07:55;97816.25;;;15.70;67.55
49178;BME280;35016;55.674;37.468;2023-04-26T12:10:41;97803.16;;;15.96;65.22
49178;BME280;35016;55.674;37.468;2023-04-26T12:13:12;97807.94;;;15.99;65.81
49178;BME280;35016;55.674;37.468;2023-04-26T12:15:39;97816.41;;;15.86;66.07
49178;BME280;35016;55.674;37.468;2023-04-26T12:18:09;97833.63;;;15.65;65.37
49178;BME280;35016;55.674;37.468;2023-04-26T12:20:40;97810.22;;;15.35;65.46
49178;BME280;35016;55.674;37.468;2023-04-26T12:23:12;97822.75;;;15.06;65.60
49178;BME280;35016;55.674;37.468;2023-04-26T12:25:50;97835.38;;;14.81;65.88
49178;BME280;35016;55.674;37.468;2023-04-26T12:28:18;97823.41;;;14.65;65.78
49178;BME280;35016;55.674;37.468;2023-04-26T12:30:45;97828.22;;;14.68;66.04
49178;BME280;35016;55.674;37.468;2023-04-26T12:33:16;97812.63;;;14.77;65.51
49178;BME280;35016;55.674;37.468;2023-04-26T12:35:49;97824.69;;;15.06;64.99
49178;BME280;35016;55.674;37.468;2023-04-26T12:38:19;97829.03;;;15.28;63.97
49178;BME280;35016;55.674;37.468;2023-04-26T12:40:46;97826.25;;;15.66;63.84
49178;BME280;35016;55.674;37.468;2023-04-26T12:43:13;97828.34;;;16.02;62.71
49178;BME280;35016;55.674;37.468;2023-04-26T12:45:42;97822.06;;;16.34;62.19
49178;BME280;35016;55.674;37.468;2023-04-26T12:48:11;97815.56;;;16.96;60.62
49178;BME280;35016;55.674;37.468;2023-04-26T12:50:39;97828.78;;;17.95;60.01
49178;BME280;35016;55.674;37.468;2023-04-26T12:53:07;97820.88;;;19.13;58.53
49178;BME280;35016;55.674;37.468;2023-04-26T12:55:34;97825.44;;;19.95;55.95
49178;BME280;35016;55.674;37.468;2023-04-26T12:58:01;97816.03;;;20.34;53.93
49178;BME280;35016;55.674;37.468;2023-04-26T13:00:29;97830.22;;;20.17;52.82
49178;BME280;35016;55.674;37.468;2023-04-26T13:02:56;97823.50;;;20.15;52.73
49178;BME280;35016;55.674;37.468;2023-04-26T13:05:24;97831.38;;;20.55;51.74
49178;BME280;35016;55.674;37.468;2023-04-26T13:07:51;97843.69;;;21.07;50.87
49178;BME280;35016;55.674;37.468;2023-04-26T13:10:18;97840.22;;;21.62;49.37
49178;BME280;35016;55.674;37.468;2023-04-26T13:12:45;97856.94;;;22.33;48.18
49178;BME280;35016;55.674;37.468;2023-04-26T13:15:13;97828.09;;;23.12;47.00